Ghardaia, Algeria
Current Conditions -  °F | °C
As of 5:00 PM on Monday 24 Nov 2014 (Local Time) from DAUG Reporting Station
Broken Clouds Broken Clouds  
Wind Chill: 19°   Ceiling: 4000
Heat Index: 19°   Visibility: 6mi
Dew Point:   Wind: 13mph
Humidity: 30%   Direction: 40°NE
Pressure: 30.12"   Gusts: NA
Location:  32.49°N, 3.68°E
Report Text: DAUG 241600Z 04011KT 9999 BKN040 BKN090 19/01 Q1020
Loading
Personal Weather Stations






























Interactive Weather Map New forecast layout! Learn more

10-Day Weather Forecast

Advertisements
Track Severe Weather on mobile